sensor_id;sensor_type;location;lat;lon;timestamp;temperature;humidity
54168;DHT22;40072;50.958;3.592;2023-02-15T00:01:22;1.90;99.90
54168;DHT22;40072;50.958;3.592;2023-02-15T00:03:48;2.10;99.90
54168;DHT22;40072;50.958;3.592;2023-02-15T00:06:14;2.00;99.90
54168;DHT22;40072;50.958;3.592;2023-02-15T00:08:40;1.90;99.90
54168;DHT22;40072;50.958;3.592;2023-02-15T00:11:11;1.80;99.90
54168;DHT22;40072;50.958;3.592;2023-02-15T00:13:38;2.00;99.90
54168;DHT22;40072;50.958;3.592;2023-02-15T00:16:09;1.80;99.90
54168;DHT22;40072;50.958;3.592;2023-02-15T00:18:35;1.90;99.90
54168;DHT22;40072;50.958;3.592;2023-02-15T00:21:08;1.90;99.90
54168;DHT22;40072;50.958;3.592;2023-02-15T00:23:35;1.70;99.90
54168;DHT22;40072;50.958;3.592;2023-02-15T00:26:09;1.60;99.90
54168;DHT22;40072;50.958;3.592;2023-02-15T00:28:35;1.90;99.90
54168;DHT22;40072;50.958;3.592;2023-02-15T00:31:04;1.90;99.90
54168;DHT22;40072;50.958;3.592;2023-02-15T00:33:30;1.90;99.90
54168;DHT22;40072;50.958;3.592;2023-02-15T00:35:57;1.80;99.90
54168;DHT22;40072;50.958;3.592;2023-02-15T00:38:23;1.90;99.90
54168;DHT22;40072;50.958;3.592;2023-02-15T00:40:53;2.00;99.90
54168;DHT22;40072;50.958;3.592;2023-02-15T00:43:19;1.90;99.90
54168;DHT22;40072;50.958;3.592;2023-02-15T00:45:45;1.80;99.90
54168;DHT22;40072;50.958;3.592;2023-02-15T00:48:11;1.60;99.90
54168;DHT22;40072;50.958;3.592;2023-02-15T00:50:37;1.60;99.90
54168;DHT22;40072;50.958;3.592;2023-02-15T00:53:03;1.60;99.90
54168;DHT22;40072;50.958;3.592;2023-02-15T00:55:29;1.70;99.90
54168;DHT22;40072;50.958;3.592;2023-02-15T00:57:54;1.70;99.90
54168;DHT22;40072;50.958;3.592;2023-02-15T01:00:20;1.60;99.90
54168;DHT22;40072;50.958;3.592;2023-02-15T01:02:46;1.20;99.90
54168;DHT22;40072;50.958;3.592;2023-02-15T01:05:11;1.00;99.90
54168;DHT22;40072;50.958;3.592;2023-02-15T01:07:38;1.00;99.90
54168;DHT22;40072;50.958;3.592;2023-02-15T01:10:05;1.20;99.90
54168;DHT22;40072;50.958;3.592;2023-02-15T01:12:31;1.20;99.90
54168;DHT22;40072;50.958;3.592;2023-02-15T01:14:57;1.20;99.90
54168;DHT22;40072;50.958;3.592;2023-02-15T01:17:23;1.20;99.90
54168;DHT22;40072;50.958;3.592;2023-02-15T01:19:48;1.20;99.90
54168;DHT22;40072;50.958;3.592;2023-02-15T01:22:14;1.30;99.90
54168;DHT22;40072;50.958;3.592;2023-02-15T01:24:40;1.40;99.90
54168;DHT22;40072;50.958;3.592;2023-02-15T01:27:06;1.30;99.90
54168;DHT22;40072;50.958;3.592;2023-02-15T01:29:31;1.40;99.90
54168;DHT22;40072;50.958;3.592;2023-02-15T01:31:57;1.40;99.90
54168;DHT22;40072;50.958;3.592;2023-02-15T01:34:23;1.30;99.90
54168;DHT22;40072;50.958;3.592;2023-02-15T01:36:48;1.20;99.90
54168;DHT22;40072;50.958;3.592;2023-02-15T01:39:14;1.40;99.90
54168;DHT22;40072;50.958;3.592;2023-02-15T01:41:40;1.40;99.90
54168;DHT22;40072;50.958;3.592;2023-02-15T01:44:46;1.40;99.90
54168;DHT22;40072;50.958;3.592;2023-02-15T01:47:26;1.40;99.90
54168;DHT22;40072;50.958;3.592;2023-02-15T01:50:28;1.20;99.90
54168;DHT22;40072;50.958;3.592;2023-02-15T01:53:05;1.00;99.90
54168;DHT22;40072;50.958;3.592;2023-02-15T01:55:38;0.90;99.90
54168;DHT22;40072;50.958;3.592;2023-02-15T01:58:05;0.90;99.90
54168;DHT22;40072;50.958;3.592;2023-02-15T02:00:32;0.80;99.90
54168;DHT22;40072;50.958;3.592;2023-02-15T02:02:59;0.80;99.90
54168;DHT22;40072;50.958;3.592;2023-02-15T02:05:25;0.70;99.90
54168;DHT22;40072;50.958;3.592;2023-02-15T02:07:53;0.80;99.90
54168;DHT22;40072;50.958;3.592;2023-02-15T02:10:21;0.80;99.90
54168;DHT22;40072;50.958;3.592;2023-02-15T02:12:50;0.80;99.90
54168;DHT22;40072;50.958;3.592;2023-02-15T02:15:17;0.90;99.90
54168;DHT22;40072;50.958;3.592;2023-02-15T02:25:46;0.70;99.90
54168;DHT22;40072;50.958;3.592;2023-02-15T02:28:43;0.70;99.90
54168;DHT22;40072;50.958;3.592;2023-02-15T02:33:50;0.60;99.90
54168;DHT22;40072;50.958;3.592;2023-02-15T02:39:03;0.70;99.90
54168;DHT22;40072;50.958;3.592;2023-02-15T02:42:15;0.70;99.90
54168;DHT22;40072;50.958;3.592;2023-02-15T02:46:59;0.60;99.90
54168;DHT22;40072;50.958;3.592;2023-02-15T02:49:33;0.60;99.90
54168;DHT22;40072;50.958;3.592;2023-02-15T02:52:01;0.70;99.90
54168;DHT22;40072;50.958;3.592;2023-02-15T02:54:28;0.80;99.90
54168;DHT22;40072;50.958;3.592;2023-02-15T02:56:56;0.80;99.90
54168;DHT22;40072;50.958;3.592;2023-02-15T02:59:29;0.90;99.90
54168;DHT22;40072;50.958;3.592;2023-02-15T03:04:29;0.70;99.90
54168;DHT22;40072;50.958;3.592;2023-02-15T03:07:07;0.70;99.90
54168;DHT22;40072;50.958;3.592;2023-02-15T03:09:38;0.80;99.90
54168;DHT22;40072;50.958;3.592;2023-02-15T03:12:14;0.80;99.90
54168;DHT22;40072;50.958;3.592;2023-02-15T03:14:42;0.90;99.90
54168;DHT22;40072;50.958;3.592;2023-02-15T03:17:09;0.80;99.90
54168;DHT22;40072;50.958;3.592;2023-02-15T03:19:38;0.80;99.90
54168;DHT22;40072;50.958;3.592;2023-02-15T03:22:14;0.70;99.90
54168;DHT22;40072;50.958;3.592;2023-02-15T03:25:02;0.70;99.90
54168;DHT22;40072;50.958;3.592;2023-02-15T03:27:58;0.70;99.90
54168;DHT22;40072;50.958;3.592;2023-02-15T03:30:28;0.60;99.90
54168;DHT22;40072;50.958;3.592;2023-02-15T03:32:56;0.60;99.90
54168;DHT22;40072;50.958;3.592;2023-02-15T03:35:25;0.60;99.90
54168;DHT22;40072;50.958;3.592;2023-02-15T03:37:55;0.70;99.90
54168;DHT22;40072;50.958;3.592;2023-02-15T03:40:37;0.60;99.90
54168;DHT22;40072;50.958;3.592;2023-02-15T03:48:58;0.40;99.90
54168;DHT22;40072;50.958;3.592;2023-02-15T03:51:29;0.40;99.90
54168;DHT22;40072;50.958;3.592;2023-02-15T03:54:23;0.40;99.90
54168;DHT22;40072;50.958;3.592;2023-02-15T03:57:11;0.50;99.90
54168;DHT22;40072;50.958;3.592;2023-02-15T03:59:57;0.60;99.90
54168;DHT22;40072;50.958;3.592;2023-02-15T04:03:10;0.80;99.90
54168;DHT22;40072;50.958;3.592;2023-02-15T04:05:36;0.90;99.90
54168;DHT22;40072;50.958;3.592;2023-02-15T04:08:02;1.00;99.90
54168;DHT22;40072;50.958;3.592;2023-02-15T04:10:28;1.00;99.90
54168;DHT22;40072;50.958;3.592;2023-02-15T04:13:11;1.00;99.90
54168;DHT22;40072;50.958;3.592;2023-02-15T04:15:37;1.00;99.90
54168;DHT22;40072;50.958;3.592;2023-02-15T04:18:22;1.10;99.90
54168;DHT22;40072;50.958;3.592;2023-02-15T04:21:06;1.10;99.90
54168;DHT22;40072;50.958;3.592;2023-02-15T04:23:50;1.00;99.90
54168;DHT22;40072;50.958;3.592;2023-02-15T04:26:34;0.90;99.90
54168;DHT22;40072;50.958;3.592;2023-02-15T04:28:59;0.80;99.90
54168;DHT22;40072;50.958;3.592;2023-02-15T04:31:25;0.60;99.90
54168;DHT22;40072;50.958;3.592;2023-02-15T04:33:50;0.50;99.90
54168;DHT22;40072;50.958;3.592;2023-02-15T04:36:16;0.50;99.90
54168;DHT22;40072;50.958;3.592;2023-02-15T04:38:42;0.40;99.90
54168;DHT22;40072;50.958;3.592;2023-02-15T04:41:07;0.40;99.90
54168;DHT22;40072;50.958;3.592;2023-02-15T04:43:34;0.50;99.90
54168;DHT22;40072;50.958;3.592;2023-02-15T04:45:59;0.50;99.90
54168;DHT22;40072;50.958;3.592;2023-02-15T04:48:25;0.50;99.90
54168;DHT22;40072;50.958;3.592;2023-02-15T04:50:51;0.50;99.90
54168;DHT22;40072;50.958;3.592;2023-02-15T04:53:16;0.50;99.90
54168;DHT22;40072;50.958;3.592;2023-02-15T04:55:43;0.60;99.90
54168;DHT22;40072;50.958;3.592;2023-02-15T04:58:09;0.80;99.90
54168;DHT22;40072;50.958;3.592;2023-02-15T05:00:34;0.90;99.90
54168;DHT22;40072;50.958;3.592;2023-02-15T05:03:00;1.10;99.90
54168;DHT22;40072;50.958;3.592;2023-02-15T05:05:26;1.10;99.90
54168;DHT22;40072;50.958;3.592;2023-02-15T05:07:51;1.10;99.90
54168;DHT22;40072;50.958;3.592;2023-02-15T05:10:17;1.10;99.90
54168;DHT22;40072;50.958;3.592;2023-02-15T05:12:43;1.00;99.90
54168;DHT22;40072;50.958;3.592;2023-02-15T05:15:09;1.00;99.90
54168;DHT22;40072;50.958;3.592;2023-02-15T05:17:34;0.80;99.90
54168;DHT22;40072;50.958;3.592;2023-02-15T05:20:00;0.90;99.90
54168;DHT22;40072;50.958;3.592;2023-02-15T05:22:26;0.80;99.90
54168;DHT22;40072;50.958;3.592;2023-02-15T05:24:51;0.80;99.90
54168;DHT22;40072;50.958;3.592;2023-02-15T05:27:36;0.70;99.90
54168;DHT22;40072;50.958;3.592;2023-02-15T05:30:20;0.60;99.90
54168;DHT22;40072;50.958;3.592;2023-02-15T05:32:46;0.40;99.90
54168;DHT22;40072;50.958;3.592;2023-02-15T05:35:14;0.50;99.90
54168;DHT22;40072;50.958;3.592;2023-02-15T05:37:40;0.50;99.90
54168;DHT22;40072;50.958;3.592;2023-02-15T05:40:07;0.60;99.90
54168;DHT22;40072;50.958;3.592;2023-02-15T05:42:32;0.60;99.90
54168;DHT22;40072;50.958;3.592;2023-02-15T05:44:58;0.50;99.90
54168;DHT22;40072;50.958;3.592;2023-02-15T05:47:24;0.60;99.90
54168;DHT22;40072;50.958;3.592;2023-02-15T05:49:49;0.50;99.90
54168;DHT22;40072;50.958;3.592;2023-02-15T05:52:15;0.40;99.90
54168;DHT22;40072;50.958;3.592;2023-02-15T05:54:41;0.40;99.90
54168;DHT22;40072;50.958;3.592;2023-02-15T05:57:06;0.40;99.90
54168;DHT22;40072;50.958;3.592;2023-02-15T05:59:32;0.40;99.90
54168;DHT22;40072;50.958;3.592;2023-02-15T06:01:58;0.40;99.90
54168;DHT22;40072;50.958;3.592;2023-02-15T06:04:23;0.40;99.90
54168;DHT22;40072;50.958;3.592;2023-02-15T06:06:49;0.40;99.90
54168;DHT22;40072;50.958;3.592;2023-02-15T06:09:15;0.40;99.90
54168;DHT22;40072;50.958;3.592;2023-02-15T06:11:44;0.50;99.90
54168;DHT22;40072;50.958;3.592;2023-02-15T06:14:10;0.40;99.90
54168;DHT22;40072;50.958;3.592;2023-02-15T06:16:35;0.50;99.90
54168;DHT22;40072;50.958;3.592;2023-02-15T06:19:01;0.50;99.90
54168;DHT22;40072;50.958;3.592;2023-02-15T06:21:28;0.40;99.90
54168;DHT22;40072;50.958;3.592;2023-02-15T06:23:54;0.40;99.90
54168;DHT22;40072;50.958;3.592;2023-02-15T06:26:19;0.30;99.90
54168;DHT22;40072;50.958;3.592;2023-02-15T06:28:45;0.30;99.90
54168;DHT22;40072;50.958;3.592;2023-02-15T06:31:11;0.30;99.90
54168;DHT22;40072;50.958;3.592;2023-02-15T06:33:36;0.20;99.90
54168;DHT22;40072;50.958;3.592;2023-02-15T06:36:03;0.20;99.90
54168;DHT22;40072;50.958;3.592;2023-02-15T06:38:29;0.20;99.90
54168;DHT22;40072;50.958;3.592;2023-02-15T06:40:55;0.10;99.90
54168;DHT22;40072;50.958;3.592;2023-02-15T06:43:21;0.20;99.90
54168;DHT22;40072;50.958;3.592;2023-02-15T06:45:46;0.40;99.90
54168;DHT22;40072;50.958;3.592;2023-02-15T06:48:12;0.60;99.90
54168;DHT22;40072;50.958;3.592;2023-02-15T06:50:38;0.50;99.90
54168;DHT22;40072;50.958;3.592;2023-02-15T06:53:03;0.60;99.90
54168;DHT22;40072;50.958;3.592;2023-02-15T06:55:29;0.70;99.90
54168;DHT22;40072;50.958;3.592;2023-02-15T06:57:55;0.70;99.90
54168;DHT22;40072;50.958;3.592;2023-02-15T07:00:21;0.50;99.90
54168;DHT22;40072;50.958;3.592;2023-02-15T07:02:53;0.50;99.90
54168;DHT22;40072;50.958;3.592;2023-02-15T07:05:21;0.50;99.90
54168;DHT22;40072;50.958;3.592;2023-02-15T07:07:46;0.50;99.90
54168;DHT22;40072;50.958;3.592;2023-02-15T07:10:12;0.30;99.90
54168;DHT22;40072;50.958;3.592;2023-02-15T07:12:37;0.30;99.90
54168;DHT22;40072;50.958;3.592;2023-02-15T07:15:17;0.30;99.90
54168;DHT22;40072;50.958;3.592;2023-02-15T07:17:43;0.40;99.90
54168;DHT22;40072;50.958;3.592;2023-02-15T07:20:15;0.50;99.90
54168;DHT22;40072;50.958;3.592;2023-02-15T07:22:40;0.60;99.90
54168;DHT22;40072;50.958;3.592;2023-02-15T07:25:08;0.70;99.90
54168;DHT22;40072;50.958;3.592;2023-02-15T07:27:34;0.60;99.90
54168;DHT22;40072;50.958;3.592;2023-02-15T07:30:00;0.60;99.90
54168;DHT22;40072;50.958;3.592;2023-02-15T07:32:30;0.70;99.90
54168;DHT22;40072;50.958;3.592;2023-02-15T07:34:56;0.80;99.90
54168;DHT22;40072;50.958;3.592;2023-02-15T07:37:22;1.10;99.90
54168;DHT22;40072;50.958;3.592;2023-02-15T07:39:48;1.20;99.90
54168;DHT22;40072;50.958;3.592;2023-02-15T07:42:14;1.50;99.90
54168;DHT22;40072;50.958;3.592;2023-02-15T07:44:40;1.80;99.90
54168;DHT22;40072;50.958;3.592;2023-02-15T07:47:05;2.00;99.90
54168;DHT22;40072;50.958;3.592;2023-02-15T07:49:31;2.10;99.90
54168;DHT22;40072;50.958;3.592;2023-02-15T07:51:57;2.30;99.90
54168;DHT22;40072;50.958;3.592;2023-02-15T07:54:23;2.70;99.90
54168;DHT22;40072;50.958;3.592;2023-02-15T07:56:48;2.80;99.90
54168;DHT22;40072;50.958;3.592;2023-02-15T07:59:14;2.90;99.90
54168;DHT22;40072;50.958;3.592;2023-02-15T08:01:40;3.00;99.90
54168;DHT22;40072;50.958;3.592;2023-02-15T08:04:06;3.30;99.90
54168;DHT22;40072;50.958;3.592;2023-02-15T08:06:35;3.50;99.90
54168;DHT22;40072;50.958;3.592;2023-02-15T08:09:04;3.70;99.90
54168;DHT22;40072;50.958;3.592;2023-02-15T08:11:32;4.10;99.90
54168;DHT22;40072;50.958;3.592;2023-02-15T08:14:06;4.30;99.90
54168;DHT22;40072;50.958;3.592;2023-02-15T08:16:51;4.60;99.90
54168;DHT22;40072;50.958;3.592;2023-02-15T08:19:20;5.10;99.90
54168;DHT22;40072;50.958;3.592;2023-02-15T08:21:55;5.50;99.90
54168;DHT22;40072;50.958;3.592;2023-02-15T08:24:23;5.70;99.90
54168;DHT22;40072;50.958;3.592;2023-02-15T08:26:50;5.90;99.90
54168;DHT22;40072;50.958;3.592;2023-02-15T08:29:23;6.30;99.90
54168;DHT22;40072;50.958;3.592;2023-02-15T08:31:54;6.60;99.90
54168;DHT22;40072;50.958;3.592;2023-02-15T08:34:20;6.80;99.90
54168;DHT22;40072;50.958;3.592;2023-02-15T08:36:46;7.20;99.90
54168;DHT22;40072;50.958;3.592;2023-02-15T08:39:13;7.50;99.90
54168;DHT22;40072;50.958;3.592;2023-02-15T08:41:44;7.80;99.90
54168;DHT22;40072;50.958;3.592;2023-02-15T08:44:10;8.30;99.90
54168;DHT22;40072;50.958;3.592;2023-02-15T08:46:41;8.50;99.90
54168;DHT22;40072;50.958;3.592;2023-02-15T08:49:08;9.00;99.90
54168;DHT22;40072;50.958;3.592;2023-02-15T08:51:35;9.60;99.90
54168;DHT22;40072;50.958;3.592;2023-02-15T08:54:04;9.70;99.90
54168;DHT22;40072;50.958;3.592;2023-02-15T08:56:33;9.50;99.90
54168;DHT22;40072;50.958;3.592;2023-02-15T08:59:00;9.30;99.90
54168;DHT22;40072;50.958;3.592;2023-02-15T09:01:29;8.70;99.90
54168;DHT22;40072;50.958;3.592;2023-02-15T09:04:00;8.40;99.90
54168;DHT22;40072;50.958;3.592;2023-02-15T09:06:26;8.20;99.90
54168;DHT22;40072;50.958;3.592;2023-02-15T09:08:53;8.50;99.90
54168;DHT22;40072;50.958;3.592;2023-02-15T09:11:28;9.20;99.90
54168;DHT22;40072;50.958;3.592;2023-02-15T09:13:57;9.70;99.90
54168;DHT22;40072;50.958;3.592;2023-02-15T09:16:24;9.50;99.90
54168;DHT22;40072;50.958;3.592;2023-02-15T09:18:50;10.30;99.90
54168;DHT22;40072;50.958;3.592;2023-02-15T09:21:21;11.00;99.90
54168;DHT22;40072;50.958;3.592;2023-02-15T09:23:49;11.70;99.90
54168;DHT22;40072;50.958;3.592;2023-02-15T09:26:18;12.00;99.90
54168;DHT22;40072;50.958;3.592;2023-02-15T09:28:44;11.90;99.90
54168;DHT22;40072;50.958;3.592;2023-02-15T09:31:14;12.90;99.90
54168;DHT22;40072;50.958;3.592;2023-02-15T09:33:41;14.10;99.90
54168;DHT22;40072;50.958;3.592;2023-02-15T09:36:34;14.20;99.60
54168;DHT22;40072;50.958;3.592;2023-02-15T09:50:26;12.00;99.90
54168;DHT22;40072;50.958;3.592;2023-02-15T10:26:31;12.50;99.90
54168;DHT22;40072;50.958;3.592;2023-02-15T10:34:41;15.00;97.50
54168;DHT22;40072;50.958;3.592;2023-02-15T10:43:16;16.40;93.90
54168;DHT22;40072;50.958;3.592;2023-02-15T10:51:15;16.60;93.50
54168;DHT22;40072;50.958;3.592;2023-02-15T10:57:32;15.20;94.50
54168;DHT22;40072;50.958;3.592;2023-02-15T11:00:10;15.10;95.80
54168;DHT22;40072;50.958;3.592;2023-02-15T11:05:57;17.60;92.40
54168;DHT22;40072;50.958;3.592;2023-02-15T11:08:30;18.00;91.50
54168;DHT22;40072;50.958;3.592;2023-02-15T11:11:06;17.40;91.80
54168;DHT22;40072;50.958;3.592;2023-02-15T11:13:38;15.70;93.10
54168;DHT22;40072;50.958;3.592;2023-02-15T11:16:13;14.50;95.90
54168;DHT22;40072;50.958;3.592;2023-02-15T11:19:05;15.00;95.40
54168;DHT22;40072;50.958;3.592;2023-02-15T11:21:45;14.50;95.70
54168;DHT22;40072;50.958;3.592;2023-02-15T11:24:15;15.10;95.20
54168;DHT22;40072;50.958;3.592;2023-02-15T11:27:00;15.60;94.70
54168;DHT22;40072;50.958;3.592;2023-02-15T11:29:38;16.70;93.60
54168;DHT22;40072;50.958;3.592;2023-02-15T11:32:19;16.60;93.10
54168;DHT22;40072;50.958;3.592;2023-02-15T11:37:46;15.50;94.60
54168;DHT22;40072;50.958;3.592;2023-02-15T11:42:45;16.30;94.20
54168;DHT22;40072;50.958;3.592;2023-02-15T11:47:50;19.30;91.10
54168;DHT22;40072;50.958;3.592;2023-02-15T11:50:24;20.00;89.70
54168;DHT22;40072;50.958;3.592;2023-02-15T11:52:59;19.60;89.10
54168;DHT22;40072;50.958;3.592;2023-02-15T11:55:27;18.90;88.70
54168;DHT22;40072;50.958;3.592;2023-02-15T11:58:25;18.30;90.40
54168;DHT22;40072;50.958;3.592;2023-02-15T12:03:48;20.20;87.30
54168;DHT22;40072;50.958;3.592;2023-02-15T12:06:27;20.00;86.40
54168;DHT22;40072;50.958;3.592;2023-02-15T12:09:05;18.40;89.90
54168;DHT22;40072;50.958;3.592;2023-02-15T12:11:35;17.00;91.40
54168;DHT22;40072;50.958;3.592;2023-02-15T12:14:13;17.70;91.10
54168;DHT22;40072;50.958;3.592;2023-02-15T12:16:43;17.60;91.10
54168;DHT22;40072;50.958;3.592;2023-02-15T12:19:33;15.90;92.50
54168;DHT22;40072;50.958;3.592;2023-02-15T12:22:03;15.20;94.50
54168;DHT22;40072;50.958;3.592;2023-02-15T12:24:33;14.60;94.70
54168;DHT22;40072;50.958;3.592;2023-02-15T12:27:04;14.50;95.70
54168;DHT22;40072;50.958;3.592;2023-02-15T12:29:46;15.30;94.90
54168;DHT22;40072;50.958;3.592;2023-02-15T12:32:34;14.40;96.30
54168;DHT22;40072;50.958;3.592;2023-02-15T12:35:29;14.50;96.80
54168;DHT22;40072;50.958;3.592;2023-02-15T12:38:27;14.50;97.10
54168;DHT22;40072;50.958;3.592;2023-02-15T12:43:44;13.60;98.30
54168;DHT22;40072;50.958;3.592;2023-02-15T12:46:37;13.50;98.70
54168;DHT22;40072;50.958;3.592;2023-02-15T12:49:19;12.80;99.70
54168;DHT22;40072;50.958;3.592;2023-02-15T12:51:53;12.80;99.90
54168;DHT22;40072;50.958;3.592;2023-02-15T12:54:25;13.20;99.90
54168;DHT22;40072;50.958;3.592;2023-02-15T12:56:53;14.20;99.10
54168;DHT22;40072;50.958;3.592;2023-02-15T12:59:19;15.00;97.90
54168;DHT22;40072;50.958;3.592;2023-02-15T13:01:48;16.40;96.20
54168;DHT22;40072;50.958;3.592;2023-02-15T13:04:28;17.40;94.70
54168;DHT22;40072;50.958;3.592;2023-02-15T13:07:02;17.40;94.20
54168;DHT22;40072;50.958;3.592;2023-02-15T13:12:08;17.40;93.60
54168;DHT22;40072;50.958;3.592;2023-02-15T13:14:35;17.20;93.20
54168;DHT22;40072;50.958;3.592;2023-02-15T13:17:03;16.70;94.20
54168;DHT22;40072;50.958;3.592;2023-02-15T13:19:40;16.70;93.70
54168;DHT22;40072;50.958;3.592;2023-02-15T13:22:15;16.60;93.40
54168;DHT22;40072;50.958;3.592;2023-02-15T13:24:44;16.50;93.50
54168;DHT22;40072;50.958;3.592;2023-02-15T13:27:18;16.20;93.60
54168;DHT22;40072;50.958;3.592;2023-02-15T13:29:49;16.10;93.90
54168;DHT22;40072;50.958;3.592;2023-02-15T13:32:31;16.40;94.10
54168;DHT22;40072;50.958;3.592;2023-02-15T13:34:59;16.90;93.90
54168;DHT22;40072;50.958;3.592;2023-02-15T13:37:42;17.10;93.10
54168;DHT22;40072;50.958;3.592;2023-02-15T13:40:15;15.90;94.10
54168;DHT22;40072;50.958;3.592;2023-02-15T13:42:59;15.80;95.00
54168;DHT22;40072;50.958;3.592;2023-02-15T13:51:10;15.50;94.90
54168;DHT22;40072;50.958;3.592;2023-02-15T13:53:46;15.60;95.60
54168;DHT22;40072;50.958;3.592;2023-02-15T13:56:33;15.20;95.40
54168;DHT22;40072;50.958;3.592;2023-02-15T14:08:32;17.00;93.70
54168;DHT22;40072;50.958;3.592;2023-02-15T14:16:05;16.40;94.10
54168;DHT22;40072;50.958;3.592;2023-02-15T14:18:49;17.10;93.60
54168;DHT22;40072;50.958;3.592;2023-02-15T14:21:40;16.60;93.60
54168;DHT22;40072;50.958;3.592;2023-02-15T14:24:23;17.10;93.90
54168;DHT22;40072;50.958;3.592;2023-02-15T14:26:59;15.80;94.70
54168;DHT22;40072;50.958;3.592;2023-02-15T14:32:41;15.20;95.40
54168;DHT22;40072;50.958;3.592;2023-02-15T14:35:20;14.80;96.30
54168;DHT22;40072;50.958;3.592;2023-02-15T14:40:56;15.20;96.60
54168;DHT22;40072;50.958;3.592;2023-02-15T14:49:17;14.90;96.50
54168;DHT22;40072;50.958;3.592;2023-02-15T14:59:37;14.10;98.60
54168;DHT22;40072;50.958;3.592;2023-02-15T15:02:07;13.70;99.00
54168;DHT22;40072;50.958;3.592;2023-02-15T15:04:41;13.40;99.80
54168;DHT22;40072;50.958;3.592;2023-02-15T15:09:36;13.60;99.90
54168;DHT22;40072;50.958;3.592;2023-02-15T15:15:01;13.80;99.40
54168;DHT22;40072;50.958;3.592;2023-02-15T15:20:13;13.30;99.90
54168;DHT22;40072;50.958;3.592;2023-02-15T15:22:43;12.80;99.90
54168;DHT22;40072;50.958;3.592;2023-02-15T15:27:56;12.50;99.90
54168;DHT22;40072;50.958;3.592;2023-02-15T15:41:32;12.50;99.90
54168;DHT22;40072;50.958;3.592;2023-02-15T15:47:22;12.40;99.90
54168;DHT22;40072;50.958;3.592;2023-02-15T15:49:56;12.50;99.90
54168;DHT22;40072;50.958;3.592;2023-02-15T15:52:23;12.40;99.90
54168;DHT22;40072;50.958;3.592;2023-02-15T15:54:56;12.40;99.90
54168;DHT22;40072;50.958;3.592;2023-02-15T15:57:35;12.40;99.90
54168;DHT22;40072;50.958;3.592;2023-02-15T16:00:04;12.30;99.90
54168;DHT22;40072;50.958;3.592;2023-02-15T16:02:53;12.40;99.90
54168;DHT22;40072;50.958;3.592;2023-02-15T16:05:21;12.70;99.90
54168;DHT22;40072;50.958;3.592;2023-02-15T16:07:47;12.80;99.90
54168;DHT22;40072;50.958;3.592;2023-02-15T16:10:26;13.00;99.90
54168;DHT22;40072;50.958;3.592;2023-02-15T16:12:53;13.20;99.90
54168;DHT22;40072;50.958;3.592;2023-02-15T16:15:23;13.10;99.90
54168;DHT22;40072;50.958;3.592;2023-02-15T16:17:50;12.90;99.90
54168;DHT22;40072;50.958;3.592;2023-02-15T16:22:49;12.40;99.90
54168;DHT22;40072;50.958;3.592;2023-02-15T16:28:10;12.50;99.90
54168;DHT22;40072;50.958;3.592;2023-02-15T16:30:37;12.50;99.90
54168;DHT22;40072;50.958;3.592;2023-02-15T16:33:15;12.50;99.90
54168;DHT22;40072;50.958;3.592;2023-02-15T16:35:54;12.50;99.90
54168;DHT22;40072;50.958;3.592;2023-02-15T16:41:23;12.50;99.90
54168;DHT22;40072;50.958;3.592;2023-02-15T16:43:50;12.30;99.90
54168;DHT22;40072;50.958;3.592;2023-02-15T16:48:57;11.40;99.90
54168;DHT22;40072;50.958;3.592;2023-02-15T16:51:25;11.30;99.90
54168;DHT22;40072;50.958;3.592;2023-02-15T16:53:52;11.10;99.90
54168;DHT22;40072;50.958;3.592;2023-02-15T16:56:30;11.00;99.90
54168;DHT22;40072;50.958;3.592;2023-02-15T16:58:57;10.80;99.90
54168;DHT22;40072;50.958;3.592;2023-02-15T17:01:29;10.70;99.90
54168;DHT22;40072;50.958;3.592;2023-02-15T17:09:26;10.90;99.90
54168;DHT22;40072;50.958;3.592;2023-02-15T17:11:51;10.80;99.90
54168;DHT22;40072;50.958;3.592;2023-02-15T17:14:40;10.70;99.90
54168;DHT22;40072;50.958;3.592;2023-02-15T17:17:08;10.80;99.90
54168;DHT22;40072;50.958;3.592;2023-02-15T17:19:47;10.60;99.90
54168;DHT22;40072;50.958;3.592;2023-02-15T17:22:25;10.50;99.90
54168;DHT22;40072;50.958;3.592;2023-02-15T17:25:02;10.40;99.90
54168;DHT22;40072;50.958;3.592;2023-02-15T17:27:30;10.40;99.90
54168;DHT22;40072;50.958;3.592;2023-02-15T17:30:04;10.30;99.90
54168;DHT22;40072;50.958;3.592;2023-02-15T17:32:37;10.20;99.90
54168;DHT22;40072;50.958;3.592;2023-02-15T17:37:49;10.00;99.90
54168;DHT22;40072;50.958;3.592;2023-02-15T17:40:25;9.90;99.90
54168;DHT22;40072;50.958;3.592;2023-02-15T17:42:52;9.70;99.90
54168;DHT22;40072;50.958;3.592;2023-02-15T17:45:19;9.50;99.90
54168;DHT22;40072;50.958;3.592;2023-02-15T17:47:47;9.40;99.90
54168;DHT22;40072;50.958;3.592;2023-02-15T17:50:25;9.40;99.90
54168;DHT22;40072;50.958;3.592;2023-02-15T17:52:52;9.40;99.90
54168;DHT22;40072;50.958;3.592;2023-02-15T17:55:20;9.40;99.90
54168;DHT22;40072;50.958;3.592;2023-02-15T17:58:13;9.50;99.90
54168;DHT22;40072;50.958;3.592;2023-02-15T18:00:42;9.50;99.90
54168;DHT22;40072;50.958;3.592;2023-02-15T18:03:37;9.60;99.90
54168;DHT22;40072;50.958;3.592;2023-02-15T18:06:21;9.70;99.90
54168;DHT22;40072;50.958;3.592;2023-02-15T18:09:16;9.70;99.90
54168;DHT22;40072;50.958;3.592;2023-02-15T18:12:01;9.60;99.90
54168;DHT22;40072;50.958;3.592;2023-02-15T18:14:27;9.50;99.90
54168;DHT22;40072;50.958;3.592;2023-02-15T18:16:53;9.50;99.90
54168;DHT22;40072;50.958;3.592;2023-02-15T18:19:24;9.40;99.90
54168;DHT22;40072;50.958;3.592;2023-02-15T18:21:51;9.60;99.90
54168;DHT22;40072;50.958;3.592;2023-02-15T18:24:22;9.70;99.90
54168;DHT22;40072;50.958;3.592;2023-02-15T18:26:49;9.60;99.90
54168;DHT22;40072;50.958;3.592;2023-02-15T18:29:15;9.50;99.90
54168;DHT22;40072;50.958;3.592;2023-02-15T18:31:41;9.30;99.90
54168;DHT22;40072;50.958;3.592;2023-02-15T18:34:35;9.10;99.90
54168;DHT22;40072;50.958;3.592;2023-02-15T18:37:03;9.10;99.90
54168;DHT22;40072;50.958;3.592;2023-02-15T18:39:42;9.20;99.90
54168;DHT22;40072;50.958;3.592;2023-02-15T18:42:25;9.20;99.90
54168;DHT22;40072;50.958;3.592;2023-02-15T18:44:58;8.90;99.90
54168;DHT22;40072;50.958;3.592;2023-02-15T18:47:24;8.90;99.90
54168;DHT22;40072;50.958;3.592;2023-02-15T18:49:50;8.80;99.90
54168;DHT22;40072;50.958;3.592;2023-02-15T18:52:19;8.80;99.90
54168;DHT22;40072;50.958;3.592;2023-02-15T18:54:46;8.60;99.90
54168;DHT22;40072;50.958;3.592;2023-02-15T18:57:14;8.50;99.90
54168;DHT22;40072;50.958;3.592;2023-02-15T18:59:40;8.40;99.90
54168;DHT22;40072;50.958;3.592;2023-02-15T19:02:15;8.50;99.90
54168;DHT22;40072;50.958;3.592;2023-02-15T19:04:42;8.50;99.90
54168;DHT22;40072;50.958;3.592;2023-02-15T19:07:21;8.40;99.90
54168;DHT22;40072;50.958;3.592;2023-02-15T19:09:49;8.20;99.90
54168;DHT22;40072;50.958;3.592;2023-02-15T19:12:16;8.20;99.90
54168;DHT22;40072;50.958;3.592;2023-02-15T19:14:44;8.10;99.90
54168;DHT22;40072;50.958;3.592;2023-02-15T19:17:20;8.00;99.90
54168;DHT22;40072;50.958;3.592;2023-02-15T19:19:47;7.90;99.90